^^

..:: Storico WU ::..




Lo storico viene creato da WUnderground con i dati che la stazione Meteomincio invia al loro server. L' aggiornamento viene fatto ogni 5 minuti circa, tuttavia possono esserci intervalli pi¨ ampi a causa di errori, interruzioni di servizio o problemi nell' invio tramite FTP.


Storico stazione MeteoMincio
Giorno Sommario per Aprile 20, 2022 Unità:  Inglese    Metrico   Entrambi
Giorno Settimana Mese Anno
  Max: Min: Media:
Temperatura: 64 °F 50.9 °F 55.9 °F
Dew Point: 47.3 °F 40.6 °F 45 °F
Umidità: 80% 54.2% 67%
Velocità vento: 13.4mph 1.9mph 7.6mph
Raffica: 24.2mph - -
Direzione- - East
Pressione: 29.9 in 29.8 in -
Precipitazioni: 0 in    
 
 
Tabulato Dati per Aprile 20, 2022
Ora Temperatura Dew Point Pressione Direzione Velocità vento Raffica Umidità Intensità pioggia (oraria) Info solare Situazione
00:04 52.3 °F 43.5 °F 29.8 in East 4.8 mph 13 mph 72% 0 in 0 W/m2
00:09 52.2 °F 43.5 °F 29.8 in East 5 mph 9 mph 72.3% 0 in 0 W/m2
00:14 52.2 °F 43.7 °F 29.8 in East 7.8 mph 15 mph 73% 0 in 0 W/m2
00:19 52.2 °F 43.9 °F 29.8 in ESE 7.3 mph 15 mph 73.3% 0 in 0 W/m2
00:24 52.2 °F 44.2 °F 29.8 in East 7 mph 15 mph 74% 0 in 0 W/m2
00:29 52 °F 44.1 °F 29.8 in East 6.8 mph 13 mph 74.3% 0 in 0 W/m2
00:34 52 °F 44.2 °F 29.8 in East 5 mph 8.1 mph 75.3% 0 in 0 W/m2
00:39 51.8 °F 44.4 °F 29.8 in East 5.5 mph 9 mph 76% 0 in 0 W/m2
00:44 51.8 °F 44.4 °F 29.8 in East 6.7 mph 11.5 mph 76% 0 in 0 W/m2
00:49 52 °F 45 °F 29.8 in East 7.5 mph 14 mph 76.8% 0 in 0 W/m2
00:54 52 °F 45 °F 29.8 in East 7.8 mph 15 mph 77% 0 in 0 W/m2
00:59 52.2 °F 45.1 °F 29.8 in East 8.6 mph 15 mph 77% 0 in 0 W/m2
01:04 52.2 °F 45.3 °F 29.8 in East 7.9 mph 15 mph 77.8% 0 in 0 W/m2
01:09 52 °F 45.3 °F 29.8 in East 7.5 mph 13 mph 78% 0 in 0 W/m2
01:14 52 °F 45.3 °F 29.8 in East 8.1 mph 14 mph 78% 0 in 0 W/m2
01:19 52 °F 45.7 °F 29.8 in East 8.2 mph 15 mph 78.8% 0 in 0 W/m2
01:24 52 °F 45.7 °F 29.8 in East 9.3 mph 15 mph 79% 0 in 0 W/m2
01:29 52 °F 45.7 °F 29.8 in East 9.7 mph 17.3 mph 79% 0 in 0 W/m2
01:34 52 °F 45.7 °F 29.8 in East 7.2 mph 17 mph 79.2% 0 in 0 W/m2
01:39 52 °F 45.9 °F 29.8 in East 9 mph 19.6 mph 79.8% 0 in 0 W/m2
01:44 52 °F 45.9 °F 29.8 in East 9.8 mph 20 mph 80% 0 in 0 W/m2
01:49 51.8 °F 45.9 °F 29.8 in East 9.6 mph 17 mph 80% 0 in 0 W/m2
01:54 51.8 °F 45.9 °F 29.8 in East 9.5 mph 16.1 mph 80% 0 in 0 W/m2
01:59 52 °F 45.9 °F 29.8 in East 8.1 mph 16 mph 80% 0 in 0 W/m2
02:04 52 °F 46 °F 29.8 in East 9.3 mph 15 mph 80% 0 in 0 W/m2
02:09 52 °F 46 °F 29.8 in East 7.8 mph 16 mph 80% 0 in 0 W/m2
02:14 52.2 °F 46 °F 29.8 in East 8.3 mph 16.1 mph 80% 0 in 0 W/m2
02:19 52.2 °F 46 °F 29.8 in ENE 8.8 mph 16 mph 80% 0 in 0 W/m2
02:24 52.2 °F 46 °F 29.8 in East 9.6 mph 15 mph 80% 0 in 0 W/m2
02:29 52.2 °F 46.2 °F 29.8 in East 10.9 mph 17.3 mph 80% 0 in 0 W/m2
02:34 52.2 °F 46.2 °F 29.8 in East 9.6 mph 17 mph 80% 0 in 0 W/m2
02:39 52.3 °F 46.2 °F 29.8 in East 8.6 mph 15 mph 80% 0 in 0 W/m2
02:44 52.3 °F 46.4 °F 29.8 in East 10.3 mph 18 mph 80% 0 in 0 W/m2
02:49 52.3 °F 46.4 °F 29.9 in ENE 9.9 mph 18.4 mph 80% 0 in 0 W/m2
02:54 52.5 °F 46.4 °F 29.9 in East 10.9 mph 18 mph 80% 0 in 0 W/m2
02:59 52.5 °F 46.6 °F 29.9 in ENE 10.8 mph 17.3 mph 80% 0 in 0 W/m2
03:04 52.5 °F 46.6 °F 29.9 in ENE 8.6 mph 17 mph 80% 0 in 0 W/m2
03:09 52.5 °F 46.6 °F 29.9 in ENE 9.5 mph 16.1 mph 80% 0 in 0 W/m2
03:14 52.7 °F 46.6 °F 29.9 in East 9.9 mph 17.3 mph 80% 0 in 0 W/m2
03:19 52.7 °F 46.6 °F 29.9 in ENE 13.4 mph 21.9 mph 80% 0 in 0 W/m2
03:24 52.7 °F 46.8 °F 29.9 in East 11.2 mph 22 mph 80% 0 in 0 W/m2
03:29 52.7 °F 46.8 °F 29.9 in East 9.6 mph 19 mph 80% 0 in 0 W/m2
03:34 52.7 °F 46.8 °F 29.9 in East 10 mph 19.6 mph 80% 0 in 0 W/m2
03:39 52.9 °F 46.8 °F 29.9 in ENE 11.8 mph 20 mph 80% 0 in 0 W/m2
03:44 52.9 °F 46.9 °F 29.9 in ENE 10.8 mph 18 mph 80% 0 in 0 W/m2
03:49 52.9 °F 46.9 °F 29.9 in ENE 11.4 mph 20 mph 79.6% 0 in 0 W/m2
03:54 53.1 °F 46.8 °F 29.9 in ENE 12.1 mph 24.2 mph 79% 0 in 0 W/m2
03:59 53.1 °F 46.8 °F 29.9 in ENE 10.1 mph 24 mph 79% 0 in 0 W/m2
04:04 53.1 °F 46.8 °F 29.9 in East 9.6 mph 18 mph 79% 0 in 0 W/m2
04:09 53.1 °F 46.8 °F 29.9 in East 11.9 mph 18.4 mph 79% 0 in 0 W/m2
04:14 52.9 °F 46.6 °F 29.9 in East 10.2 mph 18 mph 79% 0 in 0 W/m2
04:19 52.9 °F 46.6 °F 29.9 in East 10.1 mph 19.6 mph 79% 0 in 0 W/m2
04:24 52.9 °F 46.6 °F 29.9 in East 10.4 mph 20 mph 79% 0 in 0 W/m2
04:29 52.9 °F 46.6 °F 29.9 in East 11.4 mph 18.4 mph 78.7% 0 in 0 W/m2
04:34 52.9 °F 46.2 °F 29.9 in East 10.6 mph 18 mph 78% 0 in 0 W/m2
04:39 52.9 °F 46.2 °F 29.9 in East 9.7 mph 18 mph 78% 0 in 0 W/m2
04:44 52.9 °F 46.2 °F 29.9 in East 9.8 mph 18.4 mph 78% 0 in 0 W/m2
04:49 52.9 °F 46 °F 29.9 in East 9.8 mph 18 mph 77.7% 0 in 0 W/m2
04:54 52.9 °F 45.9 °F 29.9 in East 9.6 mph 17 mph 77% 0 in 0 W/m2
04:59 52.7 °F 45.9 °F 29.9 in East 11.8 mph 18.4 mph 77% 0 in 0 W/m2
05:04 52.7 °F 45.5 °F 29.9 in East 10.7 mph 18 mph 76.4% 0 in 0 W/m2
05:09 52.7 °F 45.3 °F 29.9 in East 8.6 mph 16 mph 76% 0 in 0 W/m2
05:14 52.7 °F 45.3 °F 29.9 in East 11.1 mph 20 mph 76% 0 in 0 W/m2
05:19 52.7 °F 45.3 °F 29.9 in East 11.2 mph 20 mph 76% 0 in 0 W/m2
05:24 52.7 °F 45.3 °F 29.9 in East 11.2 mph 17.3 mph 76% 0 in 0 W/m2
05:29 52.5 °F 45.1 °F 29.9 in East 10.4 mph 18.4 mph 76% 0 in 0 W/m2
05:34 52.5 °F 45.1 °F 29.9 in East 10 mph 18 mph 75.9% 0 in 0 W/m2
05:39 52.3 °F 44.8 °F 29.9 in East 8.4 mph 17 mph 75% 0 in 0 W/m2
05:44 52.3 °F 44.6 °F 29.9 in East 10.6 mph 20 mph 74.9% 0 in 0 W/m2
05:49 52.3 °F 44.2 °F 29.9 in ENE 10.1 mph 20 mph 74% 0 in 0 W/m2
05:54 52.3 °F 44.2 °F 29.9 in East 10.4 mph 18.4 mph 74% 0 in 0 W/m2
05:59 52.2 °F 44.2 °F 29.9 in ENE 10 mph 18 mph 74% 0 in 0 W/m2
06:04 52.2 °F 44.2 °F 29.9 in East 9.5 mph 17 mph 74% 0 in 0 W/m2
06:09 52.2 °F 44.1 °F 29.9 in East 8.6 mph 17 mph 74% 0 in 0 W/m2
06:14 52 °F 44.1 °F 29.9 in East 8.5 mph 15 mph 74% 0 in 0 W/m2
06:19 52 °F 43.9 °F 29.9 in East 8 mph 17.3 mph 74% 0 in 0 W/m2
06:24 52 °F 43.9 °F 29.9 in East 10.2 mph 17.3 mph 73.8% 0 in 0 W/m2
06:29 52 °F 43.7 °F 29.9 in East 7.9 mph 17 mph 73.4% 0 in 0 W/m2
06:34 51.8 °F 43.7 °F 29.9 in East 7.5 mph 16.1 mph 73.8% 0 in 0 W/m2
06:39 51.8 °F 43.5 °F 29.9 in East 10.1 mph 16.1 mph 73.2% 0 in 5 W/m2
06:44 51.8 °F 43.3 °F 29.9 in East 10 mph 16.1 mph 73% 0 in 5 W/m2
06:49 51.8 °F 43.3 °F 29.9 in East 9.4 mph 17 mph 73% 0 in 11 W/m2
06:54 51.8 °F 43.3 °F 29.9 in East 9.3 mph 17 mph 73% 0 in 14 W/m2
06:59 51.8 °F 43.3 °F 29.9 in East 10.6 mph 20 mph 73% 0 in 21 W/m2
07:04 51.8 °F 43.3 °F 29.9 in East 9.6 mph 20 mph 73% 0 in 25 W/m2
07:09 51.8 °F 43.3 °F 29.9 in East 9.8 mph 17.3 mph 72.8% 0 in 32 W/m2
07:14 51.8 °F 43.2 °F 29.9 in East 10.9 mph 17.3 mph 72.4% 0 in 35 W/m2
07:19 52 °F 43.2 °F 29.9 in East 9.9 mph 17 mph 72% 0 in 42 W/m2
07:24 52 °F 43.2 °F 29.9 in ENE 8.4 mph 16 mph 72% 0 in 49 W/m2
07:29 52 °F 43.2 °F 29.9 in East 9.4 mph 16.1 mph 72% 0 in 51 W/m2
07:34 52 °F 43.2 °F 29.9 in East 9.3 mph 16.1 mph 72% 0 in 56 W/m2
07:39 52 °F 43.3 °F 29.9 in East 6.8 mph 16 mph 72.2% 0 in 62 W/m2
07:44 52 °F 43.3 °F 29.9 in East 7.2 mph 12 mph 72% 0 in 63 W/m2
07:49 52.2 °F 43.3 °F 29.9 in East 6.6 mph 12 mph 72.2% 0 in 72 W/m2
07:54 52.2 °F 43.5 °F 29.9 in East 9.8 mph 18 mph 72.2% 0 in 83 W/m2
07:59 52.3 °F 43.5 °F 29.9 in East 10.5 mph 18.4 mph 72% 0 in 95 W/m2
08:04 52.3 °F 43.3 °F 29.9 in East 10.6 mph 19.6 mph 71.4% 0 in 95 W/m2
08:09 52.5 °F 43.7 °F 29.9 in East 10.1 mph 20 mph 71.8% 0 in 104 W/m2
08:14 52.5 °F 43.7 °F 29.9 in East 8.9 mph 17 mph 71.6% 0 in 107 W/m2
08:19 52.5 °F 43.7 °F 29.9 in East 7.7 mph 15 mph 72% 0 in 100 W/m2
08:24 52.5 °F 43.7 °F 29.9 in ENE 7.8 mph 14 mph 72.2% 0 in 109 W/m2
08:29 52.5 °F 43.9 °F 29.9 in East 7.3 mph 14 mph 72.3% 0 in 123 W/m2
08:34 52.7 °F 43.9 °F 29.9 in East 7.3 mph 14 mph 72% 0 in 132 W/m2
08:39 52.7 °F 44.1 °F 29.9 in East 6.3 mph 14 mph 72.1% 0 in 144 W/m2
08:44 52.9 °F 44.1 °F 29.9 in East 6.8 mph 13 mph 72% 0 in 144 W/m2
08:49 52.9 °F 43.9 °F 29.9 in East 6.2 mph 13 mph 71.3% 0 in 135 W/m2
08:54 52.9 °F 43.9 °F 29.9 in East 7.2 mph 11.5 mph 71.5% 0 in 132 W/m2
08:59 52.9 °F 43.7 °F 29.9 in East 8.5 mph 14 mph 71% 0 in 132 W/m2
09:04 53.1 °F 43.7 °F 29.9 in East 7 mph 13 mph 71% 0 in 116 W/m2
09:09 53.1 °F 43.9 °F 29.9 in East 8.9 mph 14 mph 71.1% 0 in 132 W/m2
09:14 53.1 °F 43.9 °F 29.9 in East 8.1 mph 14 mph 71% 0 in 178 W/m2
09:19 53.1 °F 43.7 °F 29.9 in East 9.3 mph 15 mph 70.5% 0 in 218 W/m2
09:24 53.4 °F 44.2 °F 29.9 in East 8.7 mph 15 mph 70.8% 0 in 239 W/m2
09:29 53.8 °F 44.4 °F 29.9 in ENE 8.7 mph 16 mph 70.3% 0 in 281 W/m2
09:34 54.1 °F 44.4 °F 29.9 in ENE 11.3 mph 16.1 mph 69.7% 0 in 301 W/m2
09:39 54.3 °F 44.6 °F 29.9 in ENE 7.8 mph 16 mph 69.3% 0 in 459 W/m2
09:44 55 °F 44.8 °F 29.9 in East 7.4 mph 15 mph 68.5% 0 in 459 W/m2
09:49 55 °F 44.8 °F 29.9 in East 7.8 mph 14 mph 68.3% 0 in 446 W/m2
09:54 55.2 °F 44.8 °F 29.9 in East 7 mph 14 mph 67.7% 0 in 557 W/m2
09:59 55.6 °F 44.6 °F 29.9 in East 9.4 mph 16.1 mph 66.1% 0 in 557 W/m2
10:04 55.8 °F 44.6 °F 29.9 in East 10.5 mph 16 mph 66.3% 0 in 592 W/m2
10:09 55.9 °F 45 °F 29.9 in East 10.9 mph 15 mph 66.4% 0 in 612 W/m2
10:14 56.5 °F 45 °F 29.9 in ESE 9.3 mph 19.6 mph 65.2% 0 in 492 W/m2
10:19 56.1 °F 44.6 °F 29.9 in ESE 9 mph 20 mph 65.2% 0 in 396 W/m2
10:24 56.3 °F 45.1 °F 29.9 in East 9.7 mph 15 mph 66% 0 in 515 W/m2
10:29 56.7 °F 45 °F 29.9 in East 8.9 mph 15 mph 65% 0 in 450 W/m2
10:34 56.3 °F 44.8 °F 29.9 in East 7.6 mph 14 mph 64.9% 0 in 413 W/m2
10:39 56.7 °F 45 °F 29.9 in East 8.6 mph 17.3 mph 65% 0 in 436 W/m2
10:44 57 °F 45 °F 29.9 in East 8.4 mph 17.3 mph 64.1% 0 in 464 W/m2
10:49 57.2 °F 45 °F 29.9 in East 9.9 mph 17.3 mph 63.5% 0 in 589 W/m2
10:54 57 °F 45 °F 29.9 in ESE 9.8 mph 17 mph 64% 0 in 626 W/m2
10:59 57.2 °F 44.6 °F 29.9 in East 11.6 mph 16.1 mph 62.8% 0 in 626 W/m2
11:04 57.2 °F 45 °F 29.9 in East 9.6 mph 16 mph 63.6% 0 in 659 W/m2
11:09 57.7 °F 45.1 °F 29.9 in East 8.9 mph 15 mph 62.7% 0 in 642 W/m2
11:14 57.9 °F 45.1 °F 29.9 in ESE 11.4 mph 18.4 mph 62.1% 0 in 642 W/m2
11:19 57.7 °F 45.1 °F 29.9 in ESE 11.6 mph 18 mph 62.8% 0 in 700 W/m2
11:24 58.3 °F 45.3 °F 29.9 in East 12.1 mph 19 mph 62.3% 0 in 700 W/m2
11:29 58.3 °F 45 °F 29.9 in East 12.2 mph 20 mph 61.4% 0 in 526 W/m2
11:34 59 °F 45.7 °F 29.9 in ESE 10.7 mph 20 mph 61.3% 0 in 881 W/m2
11:39 59.2 °F 45.5 °F 29.9 in ENE 10.3 mph 18 mph 60.5% 0 in 881 W/m2
11:44 59 °F 45.3 °F 29.9 in East 8.5 mph 18.4 mph 60.6% 0 in 603 W/m2
11:49 59.2 °F 45.5 °F 29.9 in East 8.7 mph 18 mph 60.6% 0 in 485 W/m2
11:54 59 °F 45.9 °F 29.9 in ESE 7.3 mph 15 mph 61.7% 0 in 441 W/m2
11:59 58.6 °F 45.5 °F 29.9 in ESE 8.9 mph 15 mph 61.7% 0 in 401 W/m2
12:04 59 °F 45.7 °F 29.9 in ESE 8.6 mph 15 mph 61.4% 0 in 373 W/m2
12:09 58.8 °F 45.7 °F 29.9 in East 8.2 mph 14 mph 61.6% 0 in 397 W/m2
12:14 59 °F 45.7 °F 29.9 in ESE 8.4 mph 13 mph 61.4% 0 in 397 W/m2
12:19 59 °F 45.5 °F 29.9 in ESE 8 mph 13 mph 60.8% 0 in 371 W/m2
12:24 59 °F 45.7 °F 29.9 in ESE 7.3 mph 14 mph 61.1% 0 in 367 W/m2
12:29 59 °F 45.7 °F 29.9 in East 9 mph 16.1 mph 61.3% 0 in 336 W/m2
12:34 59.2 °F 45.9 °F 29.9 in East 8.5 mph 16.1 mph 61.1% 0 in 360 W/m2
12:39 59 °F 45.7 °F 29.9 in East 7.8 mph 16 mph 61.3% 0 in 376 W/m2
12:44 59.4 °F 45.9 °F 29.9 in ESE 7.8 mph 13 mph 61.1% 0 in 494 W/m2
12:49 59.5 °F 46.2 °F 29.9 in ESE 8.9 mph 16.1 mph 61.1% 0 in 545 W/m2
12:54 59.5 °F 45.9 °F 29.9 in East 8.1 mph 16 mph 60.8% 0 in 332 W/m2
12:59 59.4 °F 45.9 °F 29.9 in ESE 7.6 mph 13 mph 60.9% 0 in 422 W/m2
13:04 59.5 °F 46 °F 29.9 in ESE 6.5 mph 13 mph 60.9% 0 in 485 W/m2
13:09 60.1 °F 46.6 °F 29.9 in ESE 7.7 mph 13 mph 60.9% 0 in 485 W/m2
13:14 60.1 °F 46.2 °F 29.9 in East 8.9 mph 18.4 mph 59.9% 0 in 559 W/m2
13:19 60.4 °F 46.2 °F 29.9 in East 8.1 mph 18 mph 59.5% 0 in 559 W/m2
13:24 60.4 °F 46.4 °F 29.9 in East 6.3 mph 15 mph 59.7% 0 in 504 W/m2
13:29 60.6 °F 46 °F 29.9 in ENE 7.8 mph 15 mph 58.8% 0 in 343 W/m2
13:34 60.3 °F 46.2 °F 29.9 in East 6 mph 14 mph 59.7% 0 in 466 W/m2
13:39 60.4 °F 46.2 °F 29.9 in East 8.1 mph 13 mph 59.3% 0 in 478 W/m2
13:44 60.6 °F 46.4 °F 29.9 in East 6.8 mph 13 mph 59.4% 0 in 533 W/m2
13:49 61.2 °F 46.8 °F 29.9 in East 10.1 mph 14 mph 59.3% 0 in 640 W/m2
13:54 61.2 °F 46.8 °F 29.9 in East 8.6 mph 15 mph 59.2% 0 in 413 W/m2
13:59 60.4 °F 46.6 °F 29.9 in ESE 7.1 mph 15 mph 60.1% 0 in 404 W/m2
14:04 61 °F 46.9 °F 29.9 in ESE 8.7 mph 14 mph 59.6% 0 in 649 W/m2
14:09 61.7 °F 47.1 °F 29.9 in East 6.3 mph 13 mph 58.8% 0 in 726 W/m2
14:14 61.7 °F 46.8 °F 29.9 in East 8 mph 14 mph 58.2% 0 in 390 W/m2
14:19 61.5 °F 46.6 °F 29.9 in East 8.8 mph 18.4 mph 58.2% 0 in 853 W/m2
14:24 62.1 °F 46.6 °F 29.9 in ENE 9.8 mph 18.4 mph 56.8% 0 in 853 W/m2
14:29 61.5 °F 46.4 °F 29.9 in ESE 8 mph 18 mph 57.7% 0 in 816 W/m2
14:34 62.1 °F 46.8 °F 29.9 in East 8.5 mph 15 mph 57.5% 0 in 884 W/m2
14:39 62.8 °F 46.8 °F 29.9 in East 9.5 mph 15 mph 55.9% 0 in 882 W/m2
14:44 62.2 °F 46 °F 29.9 in ESE 8.4 mph 13.8 mph 55.2% 0 in 450 W/m2
14:49 61.9 °F 46.2 °F 29.9 in East 8 mph 13.8 mph 56.6% 0 in 874 W/m2
14:54 63 °F 46.4 °F 29.9 in East 8.7 mph 14 mph 54.8% 0 in 867 W/m2
14:59 62.4 °F 45.9 °F 29.9 in ESE 7.6 mph 15 mph 54.9% 0 in 299 W/m2
15:04 61.9 °F 45.9 °F 29.9 in East 7.5 mph 15 mph 55.9% 0 in 842 W/m2
15:09 62.4 °F 46 °F 29.9 in ESE 8.9 mph 13 mph 55.1% 0 in 842 W/m2
15:14 62.4 °F 46.2 °F 29.9 in East 8 mph 17 mph 55.6% 0 in 724 W/m2
15:19 63 °F 46.8 °F 29.9 in East 11.1 mph 17.3 mph 55.4% 0 in 779 W/m2
15:24 63.7 °F 47.3 °F 29.9 in ENE 8.6 mph 17 mph 55% 0 in 800 W/m2
15:29 64 °F 47.1 °F 29.9 in East 8.4 mph 14 mph 54.2% 0 in 796 W/m2
15:34 62.6 °F 46.4 °F 29.9 in ESE 9.9 mph 15 mph 55.2% 0 in 417 W/m2
15:39 62.1 °F 46.4 °F 29.9 in East 7.5 mph 15 mph 56.3% 0 in 759 W/m2
15:44 62.6 °F 46.6 °F 29.9 in East 5.2 mph 12 mph 55.9% 0 in 666 W/m2
15:49 62.8 °F 46.8 °F 29.9 in ESE 7.4 mph 15 mph 55.8% 0 in 754 W/m2
15:54 63.5 °F 47.1 °F 29.9 in ESE 9.6 mph 15 mph 55.4% 0 in 763 W/m2
15:59 63.3 °F 46.9 °F 29.9 in East 8 mph 14 mph 55.4% 0 in 712 W/m2
16:04 62.8 °F 46.8 °F 29.9 in East 8.6 mph 13 mph 56% 0 in 450 W/m2
16:09 62.4 °F 46.4 °F 29.9 in East 8.5 mph 13.8 mph 55.7% 0 in 290 W/m2
16:14 62.1 °F 46.6 °F 29.9 in East 8.8 mph 14 mph 56.8% 0 in 272 W/m2
16:19 62.2 °F 46.9 °F 29.9 in ESE 7.4 mph 14 mph 57.2% 0 in 510 W/m2
16:24 62.6 °F 47.1 °F 29.9 in ESE 7.3 mph 13 mph 56.8% 0 in 448 W/m2
16:29 62.8 °F 46.8 °F 29.9 in East 7.1 mph 13 mph 55.9% 0 in 392 W/m2
16:34 62.6 °F 46.6 °F 29.9 in ESE 6.3 mph 12 mph 55.8% 0 in 306 W/m2
16:39 62.4 °F 46.9 °F 29.9 in ESE 5.4 mph 10.4 mph 56.8% 0 in 302 W/m2
16:44 62.4 °F 46.6 °F 29.9 in ENE 5.8 mph 11.5 mph 56.1% 0 in 339 W/m2
16:49 62.8 °F 46.9 °F 29.9 in East 4.6 mph 12 mph 56.1% 0 in 376 W/m2
16:54 63.1 °F 47.3 °F 29.9 in East 6.4 mph 11 mph 56.4% 0 in 369 W/m2
16:59 62.8 °F 46.9 °F 29.9 in East 8.4 mph 13 mph 56.3% 0 in 311 W/m2
17:04 62.1 °F 46.8 °F 29.9 in ESE 7.5 mph 13 mph 57.2% 0 in 279 W/m2
17:09 62.1 °F 46.9 °F 29.9 in East 7.3 mph 12 mph 57.5% 0 in 295 W/m2
17:14 62.2 °F 46.9 °F 29.9 in East 5.7 mph 12 mph 57.2% 0 in 251 W/m2
17:19 62.2 °F 47.1 °F 29.9 in ENE 5.7 mph 10 mph 57.6% 0 in 171 W/m2
17:24 62.2 °F 47.3 °F 29.9 in East 4.8 mph 9 mph 57.9% 0 in 183 W/m2
17:29 62.1 °F 46.9 °F 29.9 in East 7.3 mph 13 mph 57.6% 0 in 202 W/m2
17:34 62.1 °F 46.8 °F 29.9 in ENE 8.4 mph 13 mph 57.4% 0 in 200 W/m2
17:39 61.9 °F 46.4 °F 29.9 in ENE 7.9 mph 13 mph 57% 0 in 125 W/m2
17:44 61.7 °F 46.2 °F 29.9 in East 8.1 mph 13 mph 57.1% 0 in 88 W/m2
17:49 61.5 °F 46.9 °F 29.9 in East 5.4 mph 12 mph 58.9% 0 in 114 W/m2
17:54 61.5 °F 46.9 °F 29.9 in East 5.7 mph 11.5 mph 59% 0 in 146 W/m2
17:59 61.5 °F 46.9 °F 29.9 in ESE 4.8 mph 12 mph 58.7% 0 in 158 W/m2
18:04 61.5 °F 46.8 °F 29.9 in ESE 4.5 mph 10 mph 58.6% 0 in 156 W/m2
18:09 61.3 °F 46.4 °F 29.9 in ESE 5.7 mph 10.4 mph 57.8% 0 in 146 W/m2
18:14 61.3 °F 46.2 °F 29.9 in ESE 6.4 mph 10 mph 57.7% 0 in 139 W/m2
18:19 61.2 °F 46.2 °F 29.9 in ESE 4.6 mph 9 mph 57.8% 0 in 144 W/m2
18:24 61.2 °F 46.4 °F 29.9 in ESE 5.4 mph 10 mph 58% 0 in 144 W/m2
18:29 61.2 °F 46.6 °F 29.9 in ESE 6.6 mph 11.5 mph 58.5% 0 in 130 W/m2
18:34 61 °F 46.2 °F 29.9 in SE 7.7 mph 12 mph 58.2% 0 in 102 W/m2
18:39 60.8 °F 45.9 °F 29.9 in ESE 7.3 mph 13 mph 58% 0 in 63 W/m2
18:44 60.6 °F 45.9 °F 29.9 in ESE 6.3 mph 13 mph 58.2% 0 in 49 W/m2
18:49 60.4 °F 45.9 °F 29.9 in ESE 7 mph 10 mph 58.7% 0 in 51 W/m2
18:54 60.3 °F 46 °F 29.9 in SE 5.9 mph 9.2 mph 59.3% 0 in 46 W/m2
18:59 60.1 °F 46.2 °F 29.9 in ESE 5.2 mph 9.2 mph 60% 0 in 47 W/m2
19:04 59.9 °F 46 °F 29.9 in ESE 5.7 mph 11.5 mph 60.1% 0 in 51 W/m2
19:09 59.7 °F 45.9 °F 29.9 in ESE 5.7 mph 12 mph 60.1% 0 in 51 W/m2
19:14 59.7 °F 45.7 °F 29.9 in ESE 6.7 mph 11.5 mph 60% 0 in 49 W/m2
19:19 59.4 °F 45.5 °F 29.9 in ESE 6.5 mph 12 mph 60% 0 in 46 W/m2
19:24 59.2 °F 45.3 °F 29.9 in ESE 7.2 mph 10.4 mph 60% 0 in 40 W/m2
19:29 59 °F 45.1 °F 29.9 in ESE 7.5 mph 11.5 mph 60% 0 in 35 W/m2
19:34 58.8 °F 45.1 °F 29.9 in ESE 6 mph 9.2 mph 60.6% 0 in 30 W/m2
19:39 58.5 °F 45.1 °F 29.9 in ESE 4.3 mph 9 mph 61% 0 in 25 W/m2
19:44 58.3 °F 45.1 °F 29.9 in ESE 4.2 mph 8 mph 61.5% 0 in 18 W/m2
19:49 58.1 °F 45 °F 29.9 in ESE 4.6 mph 8.1 mph 61.8% 0 in 12 W/m2
19:54 57.9 °F 45 °F 29.9 in ESE 4.3 mph 8 mph 62% 0 in 9 W/m2
19:59 57.6 °F 44.8 °F 29.9 in SE 6.2 mph 12 mph 62% 0 in 5 W/m2
20:04 57.4 °F 44.6 °F 29.9 in ESE 6.6 mph 12 mph 62% 0 in 0 W/m2
20:09 57.2 °F 44.4 °F 29.9 in ESE 5.4 mph 12 mph 62% 0 in 0 W/m2
20:14 57 °F 44.2 °F 29.9 in ESE 4.7 mph 9 mph 62.2% 0 in 0 W/m2
20:19 56.7 °F 44.2 °F 29.9 in ESE 4.1 mph 8.1 mph 63% 0 in 0 W/m2
20:24 56.5 °F 44.2 °F 29.9 in ESE 4.4 mph 8.1 mph 63.6% 0 in 0 W/m2
20:29 56.3 °F 44.4 °F 29.9 in ESE 3.5 mph 8 mph 64% 0 in 0 W/m2
20:34 56.1 °F 44.1 °F 29.9 in ESE 4 mph 8.1 mph 64% 0 in 0 W/m2
20:39 55.9 °F 43.9 °F 29.9 in ESE 4 mph 8.1 mph 63.7% 0 in 0 W/m2
20:44 55.9 °F 43.5 °F 29.9 in ESE 3 mph 8 mph 63% 0 in 0 W/m2
20:49 55.8 °F 43.5 °F 29.9 in ESE 3.2 mph 7 mph 63.5% 0 in 0 W/m2
20:54 55.4 °F 43.5 °F 29.9 in ESE 3.7 mph 7 mph 63.9% 0 in 0 W/m2
20:59 55.4 °F 43.2 °F 29.9 in East 3.5 mph 7 mph 63.3% 0 in 0 W/m2
21:04 55.2 °F 43.2 °F 29.9 in East 4.8 mph 8.1 mph 63.8% 0 in 0 W/m2
21:09 55.2 °F 42.8 °F 29.9 in ESE 4.5 mph 9.2 mph 63.3% 0 in 0 W/m2
21:14 54.9 °F 43 °F 29.9 in ESE 3.3 mph 9 mph 64% 0 in 0 W/m2
21:19 54.7 °F 43 °F 29.9 in ESE 2.2 mph 5 mph 64.7% 0 in 0 W/m2
21:24 54.3 °F 43.2 °F 29.9 in ESE 2.2 mph 5 mph 65.5% 0 in 0 W/m2
21:29 54.3 °F 43 °F 29.9 in ESE 3.8 mph 8.1 mph 65.6% 0 in 0 W/m2
21:34 54.3 °F 42.8 °F 29.9 in ESE 4.2 mph 8.1 mph 65% 0 in 0 W/m2
21:39 54.1 °F 42.6 °F 29.9 in ESE 4.3 mph 7 mph 64.7% 0 in 0 W/m2
21:44 54.1 °F 42.3 °F 29.9 in ESE 3.9 mph 7 mph 64.4% 0 in 0 W/m2
21:49 53.8 °F 42.3 °F 29.9 in ESE 3.8 mph 8.1 mph 65% 0 in 0 W/m2
21:54 53.8 °F 42.1 °F 29.9 in ESE 3.4 mph 8 mph 64.6% 0 in 0 W/m2
21:59 53.6 °F 41.7 °F 29.9 in ESE 4.1 mph 7 mph 64% 0 in 0 W/m2
22:04 53.6 °F 41.5 °F 29.9 in ESE 3.3 mph 8 mph 63.8% 0 in 0 W/m2
22:09 53.4 °F 41.2 °F 29.9 in ESE 4.6 mph 9.2 mph 63% 0 in 0 W/m2
22:14 53.4 °F 41.2 °F 29.9 in ESE 4 mph 9 mph 63.4% 0 in 0 W/m2
22:19 53.2 °F 41.4 °F 29.9 in ESE 4.8 mph 8.1 mph 64% 0 in 0 W/m2
22:24 53.1 °F 41.2 °F 29.9 in ESE 4.2 mph 8.1 mph 64% 0 in 0 W/m2
22:29 52.9 °F 41 °F 29.9 in ESE 3.2 mph 8.1 mph 64% 0 in 0 W/m2
22:34 52.9 °F 41 °F 29.9 in ESE 4.1 mph 8 mph 64% 0 in 0 W/m2
22:39 52.7 °F 41.2 °F 29.9 in ESE 3.5 mph 7 mph 64.4% 0 in 0 W/m2
22:44 52.5 °F 41 °F 29.9 in East 4.2 mph 8.1 mph 65% 0 in 0 W/m2
22:49 52.3 °F 41 °F 29.9 in ESE 3.5 mph 8 mph 65% 0 in 0 W/m2
22:54 52.3 °F 40.8 °F 29.9 in ESE 2.9 mph 7 mph 65% 0 in 0 W/m2
22:59 52.2 °F 40.8 °F 29.9 in ESE 2.9 mph 7 mph 65% 0 in 0 W/m2
23:04 52.2 °F 40.6 °F 29.9 in East 1.9 mph 5 mph 65% 0 in 0 W/m2
23:09 52 °F 40.6 °F 29.9 in East 2.4 mph 5 mph 65.3% 0 in 0 W/m2
23:14 51.8 °F 40.8 °F 29.9 in East 3.1 mph 6 mph 66% 0 in 0 W/m2
23:19 51.6 °F 40.6 °F 29.9 in East 2.7 mph 6 mph 66% 0 in 0 W/m2
23:24 51.6 °F 40.6 °F 29.9 in East 3.2 mph 5 mph 66% 0 in 0 W/m2
23:29 51.6 °F 40.8 °F 29.9 in East 3.4 mph 6 mph 66.5% 0 in 0 W/m2
23:34 51.4 °F 40.8 °F 29.9 in ENE 1.9 mph 3.5 mph 67% 0 in 0 W/m2
23:39 51.3 °F 40.6 °F 29.9 in East 2.5 mph 5 mph 67% 0 in 0 W/m2
23:44 51.3 °F 40.8 °F 29.9 in East 3.2 mph 6 mph 67.5% 0 in 0 W/m2
23:49 51.3 °F 41.2 °F 29.9 in East 2.1 mph 5 mph 68.4% 0 in 0 W/m2
23:54 51.1 °F 41.2 °F 29.9 in ENE 2.1 mph 5 mph 69% 0 in 0 W/m2
23:59 50.9 °F 40.8 °F 29.9 in NE 2.7 mph 4 mph 68.6% 0 in 0 W/m2
Stazione Meteorologica MeteoMincio Rivalta s/M (MN)
Con i complimenti di Weather Underground - 4 mb


GLOSSARIO METEOROLOGICO
Humidex
è un indice di calore introdotto originariamente in Canada, ove è, ancora oggi largamente impiegato. è utilizzato per descrivere il disagio fisiologico che può verificarsi nelle giornate umide e calde. Tale indice è sensibile in un intervallo di temperatura compreso tra 20°C e 55°C. Al di fuori di tale intervallo, anche al variare dell'umidità relativa, l'indice individua sempre le classi estreme.

Do NOT follow this link or you will be banned from the site!